sensor_id;sensor_type;location;lat;lon;timestamp;P1;durP1;ratioP1;P2;durP2;ratioP2
14181;SDS011;7171;50.936;6.764;2023-06-22T00:00:32;1.38;;;0.80;;
14181;SDS011;7171;50.936;6.764;2023-06-22T00:03:00;0.90;;;0.90;;
14181;SDS011;7171;50.936;6.764;2023-06-22T00:05:26;1.17;;;1.00;;
14181;SDS011;7171;50.936;6.764;2023-06-22T00:07:53;0.73;;;0.73;;
14181;SDS011;7171;50.936;6.764;2023-06-22T00:10:20;1.60;;;0.98;;
14181;SDS011;7171;50.936;6.764;2023-06-22T00:12:47;1.52;;;0.90;;
14181;SDS011;7171;50.936;6.764;2023-06-22T00:15:13;1.25;;;0.98;;
14181;SDS011;7171;50.936;6.764;2023-06-22T00:17:40;1.08;;;0.98;;
14181;SDS011;7171;50.936;6.764;2023-06-22T00:20:09;1.13;;;1.02;;
14181;SDS011;7171;50.936;6.764;2023-06-22T00:22:36;1.20;;;0.70;;
14181;SDS011;7171;50.936;6.764;2023-06-22T00:25:05;0.63;;;0.63;;
14181;SDS011;7171;50.936;6.764;2023-06-22T00:27:32;1.20;;;1.00;;
14181;SDS011;7171;50.936;6.764;2023-06-22T00:29:59;1.10;;;1.00;;
14181;SDS011;7171;50.936;6.764;2023-06-22T00:32:26;0.45;;;0.45;;
14181;SDS011;7171;50.936;6.764;2023-06-22T00:34:52;0.60;;;0.60;;
14181;SDS011;7171;50.936;6.764;2023-06-22T00:37:21;0.80;;;0.80;;
14181;SDS011;7171;50.936;6.764;2023-06-22T00:39:50;0.70;;;0.70;;
14181;SDS011;7171;50.936;6.764;2023-06-22T00:42:17;0.95;;;0.85;;
14181;SDS011;7171;50.936;6.764;2023-06-22T00:44:44;0.50;;;0.50;;
14181;SDS011;7171;50.936;6.764;2023-06-22T00:47:11;0.70;;;0.70;;
14181;SDS011;7171;50.936;6.764;2023-06-22T00:49:39;0.80;;;0.80;;
14181;SDS011;7171;50.936;6.764;2023-06-22T00:52:06;0.75;;;0.75;;
14181;SDS011;7171;50.936;6.764;2023-06-22T00:54:40;0.50;;;0.50;;
14181;SDS011;7171;50.936;6.764;2023-06-22T00:57:10;0.70;;;0.70;;
14181;SDS011;7171;50.936;6.764;2023-06-22T00:59:37;0.90;;;0.63;;
14181;SDS011;7171;50.936;6.764;2023-06-22T01:02:04;0.65;;;0.65;;
14181;SDS011;7171;50.936;6.764;2023-06-22T01:04:34;0.47;;;0.47;;
14181;SDS011;7171;50.936;6.764;2023-06-22T01:07:02;0.60;;;0.60;;
14181;SDS011;7171;50.936;6.764;2023-06-22T01:09:43;0.68;;;0.68;;
14181;SDS011;7171;50.936;6.764;2023-06-22T01:12:17;1.02;;;1.02;;
14181;SDS011;7171;50.936;6.764;2023-06-22T01:14:47;0.60;;;0.60;;
14181;SDS011;7171;50.936;6.764;2023-06-22T01:17:17;0.75;;;0.55;;
14181;SDS011;7171;50.936;6.764;2023-06-22T01:19:46;0.40;;;0.40;;
14181;SDS011;7171;50.936;6.764;2023-06-22T01:22:21;1.17;;;1.08;;
14181;SDS011;7171;50.936;6.764;2023-06-22T01:24:55;1.38;;;0.70;;
14181;SDS011;7171;50.936;6.764;2023-06-22T01:27:31;0.60;;;0.60;;
14181;SDS011;7171;50.936;6.764;2023-06-22T01:30:07;0.43;;;0.43;;
14181;SDS011;7171;50.936;6.764;2023-06-22T01:32:35;0.57;;;0.57;;
14181;SDS011;7171;50.936;6.764;2023-06-22T01:35:04;0.93;;;0.50;;
14181;SDS011;7171;50.936;6.764;2023-06-22T01:37:33;0.73;;;0.68;;
14181;SDS011;7171;50.936;6.764;2023-06-22T01:40:01;1.60;;;0.60;;
14181;SDS011;7171;50.936;6.764;2023-06-22T01:42:31;0.73;;;0.70;;
14181;SDS011;7171;50.936;6.764;2023-06-22T01:44:59;0.85;;;0.70;;
14181;SDS011;7171;50.936;6.764;2023-06-22T01:47:28;1.25;;;0.63;;
14181;SDS011;7171;50.936;6.764;2023-06-22T01:49:55;0.52;;;0.52;;
14181;SDS011;7171;50.936;6.764;2023-06-22T01:52:24;0.60;;;0.60;;
14181;SDS011;7171;50.936;6.764;2023-06-22T01:54:51;0.70;;;0.70;;
14181;SDS011;7171;50.936;6.764;2023-06-22T01:57:18;0.70;;;0.60;;
14181;SDS011;7171;50.936;6.764;2023-06-22T01:59:47;0.93;;;0.93;;
14181;SDS011;7171;50.936;6.764;2023-06-22T02:02:15;0.80;;;0.80;;
14181;SDS011;7171;50.936;6.764;2023-06-22T02:04:46;0.60;;;0.60;;
14181;SDS011;7171;50.936;6.764;2023-06-22T02:07:15;0.57;;;0.57;;
14181;SDS011;7171;50.936;6.764;2023-06-22T02:09:44;0.80;;;0.80;;
14181;SDS011;7171;50.936;6.764;2023-06-22T02:12:13;0.95;;;0.93;;
14181;SDS011;7171;50.936;6.764;2023-06-22T02:14:44;0.47;;;0.47;;
14181;SDS011;7171;50.936;6.764;2023-06-22T02:17:12;0.60;;;0.60;;
14181;SDS011;7171;50.936;6.764;2023-06-22T02:19:40;0.90;;;0.90;;
14181;SDS011;7171;50.936;6.764;2023-06-22T02:22:09;0.70;;;0.70;;
14181;SDS011;7171;50.936;6.764;2023-06-22T02:24:37;0.70;;;0.70;;
14181;SDS011;7171;50.936;6.764;2023-06-22T02:27:04;0.65;;;0.65;;
14181;SDS011;7171;50.936;6.764;2023-06-22T02:29:32;0.52;;;0.52;;
14181;SDS011;7171;50.936;6.764;2023-06-22T02:31:59;0.70;;;0.70;;
14181;SDS011;7171;50.936;6.764;2023-06-22T02:34:26;1.92;;;0.82;;
14181;SDS011;7171;50.936;6.764;2023-06-22T02:36:52;0.60;;;0.60;;
14181;SDS011;7171;50.936;6.764;2023-06-22T02:39:21;0.70;;;0.70;;
14181;SDS011;7171;50.936;6.764;2023-06-22T02:41:49;1.10;;;0.80;;
14181;SDS011;7171;50.936;6.764;2023-06-22T02:44:16;0.68;;;0.50;;
14181;SDS011;7171;50.936;6.764;2023-06-22T02:46:43;0.85;;;0.85;;
14181;SDS011;7171;50.936;6.764;2023-06-22T02:49:10;0.60;;;0.57;;
14181;SDS011;7171;50.936;6.764;2023-06-22T02:51:38;1.10;;;1.00;;
14181;SDS011;7171;50.936;6.764;2023-06-22T02:54:05;1.90;;;0.85;;
14181;SDS011;7171;50.936;6.764;2023-06-22T02:56:33;0.70;;;0.70;;
14181;SDS011;7171;50.936;6.764;2023-06-22T02:59:01;0.73;;;0.73;;
14181;SDS011;7171;50.936;6.764;2023-06-22T03:01:28;0.60;;;0.60;;
14181;SDS011;7171;50.936;6.764;2023-06-22T03:04:00;0.68;;;0.68;;
14181;SDS011;7171;50.936;6.764;2023-06-22T03:06:27;0.70;;;0.70;;
14181;SDS011;7171;50.936;6.764;2023-06-22T03:08:57;1.85;;;0.80;;
14181;SDS011;7171;50.936;6.764;2023-06-22T03:11:25;0.68;;;0.68;;
14181;SDS011;7171;50.936;6.764;2023-06-22T03:13:53;0.55;;;0.55;;
14181;SDS011;7171;50.936;6.764;2023-06-22T03:16:20;0.52;;;0.52;;
14181;SDS011;7171;50.936;6.764;2023-06-22T03:18:47;0.77;;;0.77;;
14181;SDS011;7171;50.936;6.764;2023-06-22T03:21:14;1.10;;;0.88;;
14181;SDS011;7171;50.936;6.764;2023-06-22T03:23:41;0.80;;;0.65;;
14181;SDS011;7171;50.936;6.764;2023-06-22T03:26:09;1.58;;;0.85;;
14181;SDS011;7171;50.936;6.764;2023-06-22T03:28:36;1.48;;;0.73;;
14181;SDS011;7171;50.936;6.764;2023-06-22T03:31:05;1.30;;;1.17;;
14181;SDS011;7171;50.936;6.764;2023-06-22T03:33:32;0.80;;;0.80;;
14181;SDS011;7171;50.936;6.764;2023-06-22T03:35:59;0.60;;;0.60;;
14181;SDS011;7171;50.936;6.764;2023-06-22T03:38:26;0.80;;;0.80;;
14181;SDS011;7171;50.936;6.764;2023-06-22T03:40:53;1.27;;;0.68;;
14181;SDS011;7171;50.936;6.764;2023-06-22T03:43:20;0.70;;;0.70;;
14181;SDS011;7171;50.936;6.764;2023-06-22T03:45:47;0.75;;;0.75;;
14181;SDS011;7171;50.936;6.764;2023-06-22T03:48:16;1.00;;;0.98;;
14181;SDS011;7171;50.936;6.764;2023-06-22T03:50:43;0.90;;;0.90;;
14181;SDS011;7171;50.936;6.764;2023-06-22T03:53:10;0.80;;;0.80;;
14181;SDS011;7171;50.936;6.764;2023-06-22T03:55:40;1.30;;;1.05;;
14181;SDS011;7171;50.936;6.764;2023-06-22T03:58:07;0.75;;;0.75;;
14181;SDS011;7171;50.936;6.764;2023-06-22T04:00:34;0.70;;;0.70;;
14181;SDS011;7171;50.936;6.764;2023-06-22T04:03:01;0.60;;;0.60;;
14181;SDS011;7171;50.936;6.764;2023-06-22T04:05:30;1.00;;;0.73;;
14181;SDS011;7171;50.936;6.764;2023-06-22T04:07:57;0.80;;;0.70;;
14181;SDS011;7171;50.936;6.764;2023-06-22T04:10:24;1.02;;;0.65;;
14181;SDS011;7171;50.936;6.764;2023-06-22T04:12:51;1.20;;;1.08;;
14181;SDS011;7171;50.936;6.764;2023-06-22T04:15:19;0.68;;;0.68;;
14181;SDS011;7171;50.936;6.764;2023-06-22T04:17:46;0.50;;;0.50;;
14181;SDS011;7171;50.936;6.764;2023-06-22T04:20:13;0.85;;;0.85;;
14181;SDS011;7171;50.936;6.764;2023-06-22T04:22:41;0.60;;;0.60;;
14181;SDS011;7171;50.936;6.764;2023-06-22T04:25:08;0.65;;;0.60;;
14181;SDS011;7171;50.936;6.764;2023-06-22T04:27:35;1.20;;;1.10;;
14181;SDS011;7171;50.936;6.764;2023-06-22T04:30:06;0.98;;;0.98;;
14181;SDS011;7171;50.936;6.764;2023-06-22T04:32:33;0.68;;;0.68;;
14181;SDS011;7171;50.936;6.764;2023-06-22T04:35:02;0.90;;;0.90;;
14181;SDS011;7171;50.936;6.764;2023-06-22T04:37:29;0.75;;;0.75;;
14181;SDS011;7171;50.936;6.764;2023-06-22T04:39:58;0.80;;;0.80;;
14181;SDS011;7171;50.936;6.764;2023-06-22T04:42:25;0.98;;;0.98;;
14181;SDS011;7171;50.936;6.764;2023-06-22T04:44:52;0.70;;;0.70;;
14181;SDS011;7171;50.936;6.764;2023-06-22T04:47:20;0.52;;;0.52;;
14181;SDS011;7171;50.936;6.764;2023-06-22T04:49:47;1.83;;;0.73;;
14181;SDS011;7171;50.936;6.764;2023-06-22T04:52:14;0.70;;;0.70;;
14181;SDS011;7171;50.936;6.764;2023-06-22T04:54:42;0.95;;;0.80;;
14181;SDS011;7171;50.936;6.764;2023-06-22T04:57:14;0.73;;;0.73;;
14181;SDS011;7171;50.936;6.764;2023-06-22T04:59:41;1.23;;;1.10;;
14181;SDS011;7171;50.936;6.764;2023-06-22T05:02:09;2.67;;;0.77;;
14181;SDS011;7171;50.936;6.764;2023-06-22T05:04:36;0.52;;;0.52;;
14181;SDS011;7171;50.936;6.764;2023-06-22T05:07:04;1.25;;;1.15;;
14181;SDS011;7171;50.936;6.764;2023-06-22T05:09:32;1.33;;;1.23;;
14181;SDS011;7171;50.936;6.764;2023-06-22T05:11:59;0.88;;;0.80;;
14181;SDS011;7171;50.936;6.764;2023-06-22T05:14:29;1.67;;;1.00;;
14181;SDS011;7171;50.936;6.764;2023-06-22T05:16:56;1.23;;;1.13;;
14181;SDS011;7171;50.936;6.764;2023-06-22T05:19:28;0.50;;;0.50;;
14181;SDS011;7171;50.936;6.764;2023-06-22T05:21:58;1.10;;;1.00;;
14181;SDS011;7171;50.936;6.764;2023-06-22T05:24:25;0.90;;;0.90;;
14181;SDS011;7171;50.936;6.764;2023-06-22T05:26:52;1.58;;;0.85;;
14181;SDS011;7171;50.936;6.764;2023-06-22T05:29:20;0.73;;;0.73;;
14181;SDS011;7171;50.936;6.764;2023-06-22T05:31:49;1.60;;;0.90;;
14181;SDS011;7171;50.936;6.764;2023-06-22T05:34:16;0.90;;;0.88;;
14181;SDS011;7171;50.936;6.764;2023-06-22T05:36:43;1.17;;;0.85;;
14181;SDS011;7171;50.936;6.764;2023-06-22T05:39:10;0.47;;;0.47;;
14181;SDS011;7171;50.936;6.764;2023-06-22T05:41:38;0.77;;;0.77;;
14181;SDS011;7171;50.936;6.764;2023-06-22T05:44:05;1.33;;;0.80;;
14181;SDS011;7171;50.936;6.764;2023-06-22T05:46:33;1.20;;;1.10;;
14181;SDS011;7171;50.936;6.764;2023-06-22T05:49:01;0.70;;;0.70;;
14181;SDS011;7171;50.936;6.764;2023-06-22T05:51:28;1.05;;;0.90;;
14181;SDS011;7171;50.936;6.764;2023-06-22T05:53:55;0.82;;;0.82;;
14181;SDS011;7171;50.936;6.764;2023-06-22T05:56:22;0.90;;;0.90;;
14181;SDS011;7171;50.936;6.764;2023-06-22T05:58:49;0.90;;;0.75;;
14181;SDS011;7171;50.936;6.764;2023-06-22T06:01:16;1.85;;;1.75;;
14181;SDS011;7171;50.936;6.764;2023-06-22T06:03:44;1.40;;;1.10;;
14181;SDS011;7171;50.936;6.764;2023-06-22T06:06:12;1.33;;;0.80;;
14181;SDS011;7171;50.936;6.764;2023-06-22T06:08:39;1.55;;;1.15;;
14181;SDS011;7171;50.936;6.764;2023-06-22T06:11:06;1.02;;;0.75;;
14181;SDS011;7171;50.936;6.764;2023-06-22T06:13:33;1.02;;;1.02;;
14181;SDS011;7171;50.936;6.764;2023-06-22T06:16:01;0.60;;;0.60;;
14181;SDS011;7171;50.936;6.764;2023-06-22T06:18:28;1.55;;;1.10;;
14181;SDS011;7171;50.936;6.764;2023-06-22T06:20:55;0.60;;;0.60;;
14181;SDS011;7171;50.936;6.764;2023-06-22T06:23:23;0.68;;;0.68;;
14181;SDS011;7171;50.936;6.764;2023-06-22T06:25:50;0.55;;;0.55;;
14181;SDS011;7171;50.936;6.764;2023-06-22T06:28:17;0.90;;;0.90;;
14181;SDS011;7171;50.936;6.764;2023-06-22T06:30:45;0.75;;;0.75;;
14181;SDS011;7171;50.936;6.764;2023-06-22T06:33:12;0.85;;;0.85;;
14181;SDS011;7171;50.936;6.764;2023-06-22T06:35:39;1.00;;;0.85;;
14181;SDS011;7171;50.936;6.764;2023-06-22T06:38:06;1.38;;;0.98;;
14181;SDS011;7171;50.936;6.764;2023-06-22T06:40:35;1.02;;;0.90;;
14181;SDS011;7171;50.936;6.764;2023-06-22T06:43:02;1.08;;;1.08;;
14181;SDS011;7171;50.936;6.764;2023-06-22T06:45:29;1.10;;;1.02;;
14181;SDS011;7171;50.936;6.764;2023-06-22T06:47:58;0.95;;;0.82;;
14181;SDS011;7171;50.936;6.764;2023-06-22T06:50:25;1.63;;;1.10;;
14181;SDS011;7171;50.936;6.764;2023-06-22T06:52:52;0.73;;;0.73;;
14181;SDS011;7171;50.936;6.764;2023-06-22T06:55:19;0.88;;;0.82;;
14181;SDS011;7171;50.936;6.764;2023-06-22T06:57:50;1.40;;;1.30;;
14181;SDS011;7171;50.936;6.764;2023-06-22T07:00:18;1.40;;;1.27;;
14181;SDS011;7171;50.936;6.764;2023-06-22T07:02:46;1.20;;;1.10;;
14181;SDS011;7171;50.936;6.764;2023-06-22T07:05:13;1.08;;;1.00;;
14181;SDS011;7171;50.936;6.764;2023-06-22T07:07:40;1.55;;;1.45;;
14181;SDS011;7171;50.936;6.764;2023-06-22T07:10:08;1.00;;;0.95;;
14181;SDS011;7171;50.936;6.764;2023-06-22T07:12:35;1.35;;;1.25;;
14181;SDS011;7171;50.936;6.764;2023-06-22T07:15:04;2.33;;;1.75;;
14181;SDS011;7171;50.936;6.764;2023-06-22T07:17:33;1.35;;;1.25;;
14181;SDS011;7171;50.936;6.764;2023-06-22T07:20:00;1.95;;;0.98;;
14181;SDS011;7171;50.936;6.764;2023-06-22T07:22:29;2.13;;;1.30;;
14181;SDS011;7171;50.936;6.764;2023-06-22T07:24:56;1.73;;;1.63;;
14181;SDS011;7171;50.936;6.764;2023-06-22T07:27:23;2.03;;;1.65;;
14181;SDS011;7171;50.936;6.764;2023-06-22T07:29:50;1.70;;;1.60;;
14181;SDS011;7171;50.936;6.764;2023-06-22T07:32:19;1.48;;;1.10;;
14181;SDS011;7171;50.936;6.764;2023-06-22T07:34:46;1.30;;;1.13;;
14181;SDS011;7171;50.936;6.764;2023-06-22T07:37:13;1.33;;;1.23;;
14181;SDS011;7171;50.936;6.764;2023-06-22T07:39:40;1.40;;;1.13;;
14181;SDS011;7171;50.936;6.764;2023-06-22T07:42:07;1.20;;;1.10;;
14181;SDS011;7171;50.936;6.764;2023-06-22T07:44:34;1.70;;;1.60;;
14181;SDS011;7171;50.936;6.764;2023-06-22T07:47:01;1.90;;;1.52;;
14181;SDS011;7171;50.936;6.764;2023-06-22T07:49:29;1.98;;;1.40;;
14181;SDS011;7171;50.936;6.764;2023-06-22T07:51:56;1.17;;;1.10;;
14181;SDS011;7171;50.936;6.764;2023-06-22T07:54:22;1.63;;;1.30;;
14181;SDS011;7171;50.936;6.764;2023-06-22T07:56:49;2.25;;;2.05;;
14181;SDS011;7171;50.936;6.764;2023-06-22T07:59:16;1.85;;;1.40;;
14181;SDS011;7171;50.936;6.764;2023-06-22T08:01:43;1.25;;;1.20;;
14181;SDS011;7171;50.936;6.764;2023-06-22T08:04:09;1.67;;;1.58;;
14181;SDS011;7171;50.936;6.764;2023-06-22T08:06:37;1.85;;;1.63;;
14181;SDS011;7171;50.936;6.764;2023-06-22T08:09:04;1.85;;;1.38;;
14181;SDS011;7171;50.936;6.764;2023-06-22T08:11:31;2.90;;;2.00;;
14181;SDS011;7171;50.936;6.764;2023-06-22T08:13:58;2.08;;;1.88;;
14181;SDS011;7171;50.936;6.764;2023-06-22T08:16:25;1.42;;;1.33;;
14181;SDS011;7171;50.936;6.764;2023-06-22T08:18:52;2.22;;;2.03;;
14181;SDS011;7171;50.936;6.764;2023-06-22T08:21:19;1.88;;;1.70;;
14181;SDS011;7171;50.936;6.764;2023-06-22T08:23:48;1.15;;;1.10;;
14181;SDS011;7171;50.936;6.764;2023-06-22T08:26:14;1.55;;;1.45;;
14181;SDS011;7171;50.936;6.764;2023-06-22T08:28:42;1.90;;;1.70;;
14181;SDS011;7171;50.936;6.764;2023-06-22T08:31:08;2.58;;;1.40;;
14181;SDS011;7171;50.936;6.764;2023-06-22T08:33:39;2.17;;;1.95;;
14181;SDS011;7171;50.936;6.764;2023-06-22T08:36:05;1.95;;;1.50;;
14181;SDS011;7171;50.936;6.764;2023-06-22T08:38:33;1.40;;;1.30;;
14181;SDS011;7171;50.936;6.764;2023-06-22T08:41:01;1.67;;;1.58;;
14181;SDS011;7171;50.936;6.764;2023-06-22T08:43:28;1.45;;;1.35;;
14181;SDS011;7171;50.936;6.764;2023-06-22T08:45:54;1.85;;;1.33;;
14181;SDS011;7171;50.936;6.764;2023-06-22T08:48:21;1.88;;;1.38;;
14181;SDS011;7171;50.936;6.764;2023-06-22T08:50:48;2.25;;;1.48;;
14181;SDS011;7171;50.936;6.764;2023-06-22T08:53:15;1.45;;;1.25;;
14181;SDS011;7171;50.936;6.764;2023-06-22T08:55:41;1.42;;;1.10;;
14181;SDS011;7171;50.936;6.764;2023-06-22T08:58:10;1.73;;;1.40;;
14181;SDS011;7171;50.936;6.764;2023-06-22T09:00:37;2.38;;;1.50;;
14181;SDS011;7171;50.936;6.764;2023-06-22T09:03:03;1.23;;;1.13;;
14181;SDS011;7171;50.936;6.764;2023-06-22T09:05:30;2.65;;;1.83;;
14181;SDS011;7171;50.936;6.764;2023-06-22T09:07:57;1.92;;;1.50;;
14181;SDS011;7171;50.936;6.764;2023-06-22T09:10:24;1.45;;;1.23;;
14181;SDS011;7171;50.936;6.764;2023-06-22T09:12:51;2.10;;;1.25;;
14181;SDS011;7171;50.936;6.764;2023-06-22T09:15:19;2.03;;;1.33;;
14181;SDS011;7171;50.936;6.764;2023-06-22T09:17:46;1.17;;;1.08;;
14181;SDS011;7171;50.936;6.764;2023-06-22T09:20:13;2.15;;;2.00;;
14181;SDS011;7171;50.936;6.764;2023-06-22T09:22:40;1.15;;;1.08;;
14181;SDS011;7171;50.936;6.764;2023-06-22T09:25:08;2.03;;;1.83;;
14181;SDS011;7171;50.936;6.764;2023-06-22T09:27:35;1.67;;;1.58;;
14181;SDS011;7171;50.936;6.764;2023-06-22T09:30:02;0.95;;;0.93;;
14181;SDS011;7171;50.936;6.764;2023-06-22T09:32:31;1.67;;;1.20;;
14181;SDS011;7171;50.936;6.764;2023-06-22T09:34:58;1.73;;;1.40;;
14181;SDS011;7171;50.936;6.764;2023-06-22T09:37:24;1.38;;;1.25;;
14181;SDS011;7171;50.936;6.764;2023-06-22T09:39:51;1.52;;;1.17;;
14181;SDS011;7171;50.936;6.764;2023-06-22T09:42:18;1.58;;;1.48;;
14181;SDS011;7171;50.936;6.764;2023-06-22T09:44:46;1.20;;;1.10;;
14181;SDS011;7171;50.936;6.764;2023-06-22T09:47:12;0.85;;;0.85;;
14181;SDS011;7171;50.936;6.764;2023-06-22T09:49:41;1.80;;;1.50;;
14181;SDS011;7171;50.936;6.764;2023-06-22T09:52:07;1.52;;;1.42;;
14181;SDS011;7171;50.936;6.764;2023-06-22T09:54:36;1.27;;;1.17;;
14181;SDS011;7171;50.936;6.764;2023-06-22T09:57:03;1.35;;;1.25;;
14181;SDS011;7171;50.936;6.764;2023-06-22T09:59:30;1.25;;;1.08;;
14181;SDS011;7171;50.936;6.764;2023-06-22T10:01:57;1.60;;;1.50;;
14181;SDS011;7171;50.936;6.764;2023-06-22T10:04:24;1.17;;;1.10;;
14181;SDS011;7171;50.936;6.764;2023-06-22T10:06:53;1.77;;;1.48;;
14181;SDS011;7171;50.936;6.764;2023-06-22T10:09:19;1.67;;;1.58;;
14181;SDS011;7171;50.936;6.764;2023-06-22T10:11:46;1.45;;;1.35;;
14181;SDS011;7171;50.936;6.764;2023-06-22T10:14:13;3.45;;;1.60;;
14181;SDS011;7171;50.936;6.764;2023-06-22T10:16:39;1.45;;;1.33;;
14181;SDS011;7171;50.936;6.764;2023-06-22T10:19:07;1.48;;;1.38;;
14181;SDS011;7171;50.936;6.764;2023-06-22T10:21:33;1.52;;;1.42;;
14181;SDS011;7171;50.936;6.764;2023-06-22T10:24:02;1.25;;;1.15;;
14181;SDS011;7171;50.936;6.764;2023-06-22T10:26:31;1.40;;;1.30;;
14181;SDS011;7171;50.936;6.764;2023-06-22T10:28:58;1.40;;;1.30;;
14181;SDS011;7171;50.936;6.764;2023-06-22T10:31:24;1.27;;;1.17;;
14181;SDS011;7171;50.936;6.764;2023-06-22T10:33:52;1.35;;;1.25;;
14181;SDS011;7171;50.936;6.764;2023-06-22T10:36:19;1.95;;;1.75;;
14181;SDS011;7171;50.936;6.764;2023-06-22T10:38:46;1.50;;;1.40;;
14181;SDS011;7171;50.936;6.764;2023-06-22T10:41:14;1.55;;;1.42;;
14181;SDS011;7171;50.936;6.764;2023-06-22T10:43:42;2.10;;;1.48;;
14181;SDS011;7171;50.936;6.764;2023-06-22T10:46:08;1.65;;;1.42;;
14181;SDS011;7171;50.936;6.764;2023-06-22T10:48:35;1.40;;;1.30;;
14181;SDS011;7171;50.936;6.764;2023-06-22T10:51:02;1.30;;;1.20;;
14181;SDS011;7171;50.936;6.764;2023-06-22T10:53:29;1.80;;;1.70;;
14181;SDS011;7171;50.936;6.764;2023-06-22T10:55:56;1.92;;;1.83;;
14181;SDS011;7171;50.936;6.764;2023-06-22T10:58:24;1.60;;;1.35;;
14181;SDS011;7171;50.936;6.764;2023-06-22T11:00:51;1.50;;;1.40;;
14181;SDS011;7171;50.936;6.764;2023-06-22T11:03:18;1.27;;;1.17;;
14181;SDS011;7171;50.936;6.764;2023-06-22T11:05:44;1.38;;;1.27;;
14181;SDS011;7171;50.936;6.764;2023-06-22T11:08:12;1.88;;;1.77;;
14181;SDS011;7171;50.936;6.764;2023-06-22T11:10:39;2.47;;;1.77;;
14181;SDS011;7171;50.936;6.764;2023-06-22T11:13:06;1.95;;;1.40;;
14181;SDS011;7171;50.936;6.764;2023-06-22T11:15:36;2.03;;;1.20;;
14181;SDS011;7171;50.936;6.764;2023-06-22T11:18:02;1.30;;;1.20;;
14181;SDS011;7171;50.936;6.764;2023-06-22T11:20:32;1.58;;;1.40;;
14181;SDS011;7171;50.936;6.764;2023-06-22T11:23:03;1.55;;;1.20;;
14181;SDS011;7171;50.936;6.764;2023-06-22T11:25:30;1.30;;;1.20;;
14181;SDS011;7171;50.936;6.764;2023-06-22T11:27:56;3.85;;;1.80;;
14181;SDS011;7171;50.936;6.764;2023-06-22T11:30:23;3.28;;;1.73;;
14181;SDS011;7171;50.936;6.764;2023-06-22T11:32:51;1.33;;;1.20;;
14181;SDS011;7171;50.936;6.764;2023-06-22T11:35:18;2.03;;;1.92;;
14181;SDS011;7171;50.936;6.764;2023-06-22T11:37:45;3.15;;;1.85;;
14181;SDS011;7171;50.936;6.764;2023-06-22T11:40:12;1.95;;;1.63;;
14181;SDS011;7171;50.936;6.764;2023-06-22T11:42:39;1.83;;;1.63;;
14181;SDS011;7171;50.936;6.764;2023-06-22T11:45:06;1.85;;;1.40;;
14181;SDS011;7171;50.936;6.764;2023-06-22T11:47:33;1.83;;;1.73;;
14181;SDS011;7171;50.936;6.764;2023-06-22T11:50:02;1.55;;;1.45;;
14181;SDS011;7171;50.936;6.764;2023-06-22T11:52:30;1.95;;;1.65;;
14181;SDS011;7171;50.936;6.764;2023-06-22T11:54:57;1.73;;;1.60;;
14181;SDS011;7171;50.936;6.764;2023-06-22T11:57:24;1.83;;;1.50;;
14181;SDS011;7171;50.936;6.764;2023-06-22T11:59:51;2.25;;;2.13;;
14181;SDS011;7171;50.936;6.764;2023-06-22T12:02:18;1.95;;;1.75;;
14181;SDS011;7171;50.936;6.764;2023-06-22T12:04:44;3.33;;;1.67;;
14181;SDS011;7171;50.936;6.764;2023-06-22T12:07:12;1.65;;;1.55;;
14181;SDS011;7171;50.936;6.764;2023-06-22T12:09:39;2.60;;;1.88;;
14181;SDS011;7171;50.936;6.764;2023-06-22T12:12:06;1.63;;;1.52;;
14181;SDS011;7171;50.936;6.764;2023-06-22T12:14:33;1.88;;;1.77;;
14181;SDS011;7171;50.936;6.764;2023-06-22T12:17:00;1.30;;;1.20;;
14181;SDS011;7171;50.936;6.764;2023-06-22T12:19:27;1.45;;;0.95;;
14181;SDS011;7171;50.936;6.764;2023-06-22T12:21:54;2.53;;;1.98;;
14181;SDS011;7171;50.936;6.764;2023-06-22T12:24:22;2.42;;;2.08;;
14181;SDS011;7171;50.936;6.764;2023-06-22T12:26:49;2.17;;;1.77;;
14181;SDS011;7171;50.936;6.764;2023-06-22T12:29:15;2.70;;;2.28;;
14181;SDS011;7171;50.936;6.764;2023-06-22T12:31:42;1.73;;;1.63;;
14181;SDS011;7171;50.936;6.764;2023-06-22T12:34:09;1.60;;;1.50;;
14181;SDS011;7171;50.936;6.764;2023-06-22T12:36:36;2.05;;;1.88;;
14181;SDS011;7171;50.936;6.764;2023-06-22T12:39:02;1.38;;;1.27;;
14181;SDS011;7171;50.936;6.764;2023-06-22T12:41:31;1.67;;;1.58;;
14181;SDS011;7171;50.936;6.764;2023-06-22T12:44:04;2.00;;;1.48;;
14181;SDS011;7171;50.936;6.764;2023-06-22T12:46:34;1.98;;;1.80;;
14181;SDS011;7171;50.936;6.764;2023-06-22T12:49:03;1.30;;;1.20;;
14181;SDS011;7171;50.936;6.764;2023-06-22T12:51:29;2.80;;;2.60;;
14181;SDS011;7171;50.936;6.764;2023-06-22T12:53:56;1.88;;;1.77;;
14181;SDS011;7171;50.936;6.764;2023-06-22T12:56:23;2.35;;;2.15;;
14181;SDS011;7171;50.936;6.764;2023-06-22T12:58:52;1.65;;;1.55;;
14181;SDS011;7171;50.936;6.764;2023-06-22T13:01:18;1.73;;;1.63;;
14181;SDS011;7171;50.936;6.764;2023-06-22T13:03:45;1.00;;;1.00;;
14181;SDS011;7171;50.936;6.764;2023-06-22T13:06:12;2.15;;;2.00;;
14181;SDS011;7171;50.936;6.764;2023-06-22T13:08:39;4.28;;;1.90;;
14181;SDS011;7171;50.936;6.764;2023-06-22T13:11:05;2.40;;;1.75;;
14181;SDS011;7171;50.936;6.764;2023-06-22T13:13:32;1.63;;;1.35;;
14181;SDS011;7171;50.936;6.764;2023-06-22T13:16:01;2.20;;;1.73;;
14181;SDS011;7171;50.936;6.764;2023-06-22T13:18:28;1.10;;;1.10;;
14181;SDS011;7171;50.936;6.764;2023-06-22T13:20:54;1.38;;;1.27;;
14181;SDS011;7171;50.936;6.764;2023-06-22T13:23:23;1.30;;;1.20;;
14181;SDS011;7171;50.936;6.764;2023-06-22T13:25:49;2.25;;;1.55;;
14181;SDS011;7171;50.936;6.764;2023-06-22T13:28:16;2.30;;;1.33;;
14181;SDS011;7171;50.936;6.764;2023-06-22T13:30:43;1.40;;;1.30;;
14181;SDS011;7171;50.936;6.764;2023-06-22T13:33:13;2.00;;;1.27;;
14181;SDS011;7171;50.936;6.764;2023-06-22T13:35:40;1.30;;;1.13;;
14181;SDS011;7171;50.936;6.764;2023-06-22T13:38:08;1.23;;;0.98;;
14181;SDS011;7171;50.936;6.764;2023-06-22T13:40:34;1.45;;;1.35;;
14181;SDS011;7171;50.936;6.764;2023-06-22T13:43:02;1.02;;;1.02;;
14181;SDS011;7171;50.936;6.764;2023-06-22T13:45:29;0.90;;;0.90;;
14181;SDS011;7171;50.936;6.764;2023-06-22T13:47:56;1.50;;;1.23;;
14181;SDS011;7171;50.936;6.764;2023-06-22T13:50:24;1.00;;;0.90;;
14181;SDS011;7171;50.936;6.764;2023-06-22T13:52:51;1.60;;;1.50;;
14181;SDS011;7171;50.936;6.764;2023-06-22T13:55:18;1.50;;;1.40;;
14181;SDS011;7171;50.936;6.764;2023-06-22T13:57:46;1.00;;;0.95;;
14181;SDS011;7171;50.936;6.764;2023-06-22T14:00:13;1.13;;;1.00;;
14181;SDS011;7171;50.936;6.764;2023-06-22T14:02:40;2.50;;;1.90;;
14181;SDS011;7171;50.936;6.764;2023-06-22T14:05:07;2.22;;;2.03;;
14181;SDS011;7171;50.936;6.764;2023-06-22T14:07:37;1.60;;;1.30;;
14181;SDS011;7171;50.936;6.764;2023-06-22T14:10:04;1.20;;;1.10;;
14181;SDS011;7171;50.936;6.764;2023-06-22T14:12:31;1.42;;;1.33;;
14181;SDS011;7171;50.936;6.764;2023-06-22T14:14:58;1.25;;;1.15;;
14181;SDS011;7171;50.936;6.764;2023-06-22T14:17:25;2.15;;;1.65;;
14181;SDS011;7171;50.936;6.764;2023-06-22T14:19:52;1.33;;;1.23;;
14181;SDS011;7171;50.936;6.764;2023-06-22T14:22:19;1.10;;;1.00;;
14181;SDS011;7171;50.936;6.764;2023-06-22T14:24:47;1.30;;;1.20;;
14181;SDS011;7171;50.936;6.764;2023-06-22T14:27:14;0.98;;;0.80;;
14181;SDS011;7171;50.936;6.764;2023-06-22T14:29:42;1.35;;;1.25;;
14181;SDS011;7171;50.936;6.764;2023-06-22T14:32:08;0.50;;;0.50;;
14181;SDS011;7171;50.936;6.764;2023-06-22T14:34:35;0.95;;;0.95;;
14181;SDS011;7171;50.936;6.764;2023-06-22T14:37:04;0.68;;;0.68;;
14181;SDS011;7171;50.936;6.764;2023-06-22T14:39:32;1.15;;;1.08;;
14181;SDS011;7171;50.936;6.764;2023-06-22T14:42:00;1.20;;;1.05;;
14181;SDS011;7171;50.936;6.764;2023-06-22T14:44:28;1.65;;;1.23;;
14181;SDS011;7171;50.936;6.764;2023-06-22T14:46:54;1.35;;;1.25;;
14181;SDS011;7171;50.936;6.764;2023-06-22T14:49:21;1.75;;;1.65;;
14181;SDS011;7171;50.936;6.764;2023-06-22T14:51:48;0.80;;;0.80;;
14181;SDS011;7171;50.936;6.764;2023-06-22T14:54:15;1.55;;;1.40;;
14181;SDS011;7171;50.936;6.764;2023-06-22T14:56:42;2.20;;;2.00;;
14181;SDS011;7171;50.936;6.764;2023-06-22T14:59:10;1.92;;;1.73;;
14181;SDS011;7171;50.936;6.764;2023-06-22T15:01:37;1.67;;;1.55;;